createdAt,value
2023-10-14T00:03:19.939Z,21.10
2023-10-14T00:08:20.085Z,21.00
2023-10-14T00:13:18.688Z,20.90
2023-10-14T00:18:18.530Z,20.80
2023-10-14T00:23:16.819Z,20.70
2023-10-14T00:28:21.200Z,20.50
2023-10-14T00:33:21.890Z,20.40
2023-10-14T00:38:20.350Z,20.20
2023-10-14T00:43:21.689Z,20.00
2023-10-14T00:48:28.635Z,20.00
2023-10-14T00:53:28.850Z,19.90
2023-10-14T00:58:29.811Z,19.80
2023-10-14T01:03:31.915Z,19.80
2023-10-14T01:08:31.015Z,19.90
2023-10-14T01:13:30.908Z,20.10
2023-10-14T01:18:29.688Z,20.10
2023-10-14T01:23:29.357Z,20.10
2023-10-14T01:28:31.373Z,20.00
2023-10-14T01:33:37.137Z,20.00
2023-10-14T01:38:38.353Z,20.00
2023-10-14T01:43:38.234Z,20.00
2023-10-14T01:48:39.644Z,19.90
2023-10-14T01:53:39.825Z,19.90
2023-10-14T01:58:38.848Z,20.00
2023-10-14T02:03:43.822Z,20.00
2023-10-14T02:08:43.775Z,19.80
2023-10-14T02:13:43.973Z,19.70
2023-10-14T02:18:43.417Z,19.80
2023-10-14T02:23:46.780Z,19.80
2023-10-14T02:28:47.879Z,19.80
2023-10-14T02:33:48.353Z,19.80
2023-10-14T02:38:54.420Z,19.80
2023-10-14T02:44:02.148Z,19.70
2023-10-14T02:54:29.044Z,19.90
2023-10-14T02:59:37.788Z,19.90
2023-10-14T03:04:41.801Z,20.00
2023-10-14T03:09:41.769Z,20.10
2023-10-14T03:14:42.168Z,20.20
2023-10-14T03:19:42.178Z,20.30
2023-10-14T03:24:41.677Z,20.40
2023-10-14T03:29:46.557Z,20.50
2023-10-14T03:34:46.595Z,20.60
2023-10-14T03:39:48.122Z,20.60
2023-10-14T03:44:49.057Z,20.70
2023-10-14T03:49:57.611Z,20.70
2023-10-14T03:54:58.413Z,20.70
2023-10-14T03:59:56.981Z,20.70
2023-10-14T04:05:04.356Z,20.60
2023-10-14T04:10:07.878Z,20.60
2023-10-14T04:15:27.174Z,20.60
2023-10-14T04:20:31.156Z,20.60
2023-10-14T04:25:40.832Z,20.60
2023-10-14T04:30:43.800Z,20.50
2023-10-14T04:35:58.409Z,20.60
2023-10-14T04:40:59.969Z,20.70
2023-10-14T04:46:09.621Z,20.70
2023-10-14T04:51:11.476Z,20.70
2023-10-14T04:56:12.333Z,20.70
2023-10-14T05:01:19.377Z,20.60
2023-10-14T05:06:17.840Z,20.60
2023-10-14T05:11:19.937Z,20.20
2023-10-14T05:16:22.721Z,19.50
2023-10-14T05:21:36.706Z,19.00
2023-10-14T05:26:45.336Z,18.80
2023-10-14T05:31:43.804Z,18.60
2023-10-14T05:36:42.476Z,18.30
2023-10-14T05:41:42.620Z,18.10
2023-10-14T05:46:43.037Z,17.90
2023-10-14T05:51:41.421Z,17.80
2023-10-14T05:56:43.618Z,17.70
2023-10-14T06:01:47.516Z,17.20
2023-10-14T06:06:46.065Z,16.70
2023-10-14T06:11:47.150Z,16.20
2023-10-14T06:16:45.900Z,15.90
2023-10-14T06:21:46.206Z,15.80
2023-10-14T06:26:45.822Z,15.70
2023-10-14T06:31:44.093Z,15.60
2023-10-14T06:36:48.834Z,15.40
2023-10-14T06:41:48.309Z,15.30
2023-10-14T06:46:47.176Z,15.30
2023-10-14T06:51:46.119Z,15.20
2023-10-14T06:56:46.202Z,15.10
2023-10-14T07:01:46.068Z,15.10
2023-10-14T07:06:48.992Z,14.90
2023-10-14T07:17:04.722Z,14.90
2023-10-14T07:22:09.129Z,14.90
2023-10-14T07:27:08.038Z,14.90
2023-10-14T07:32:08.014Z,14.90
2023-10-14T07:37:06.629Z,14.80
2023-10-14T07:42:10.945Z,14.80
2023-10-14T07:47:12.717Z,14.70
2023-10-14T07:52:16.368Z,14.70
2023-10-14T07:57:14.931Z,14.70
2023-10-14T08:02:19.888Z,14.70
2023-10-14T08:07:19.077Z,14.70
2023-10-14T08:12:17.340Z,15.00
2023-10-14T08:17:17.036Z,15.40
2023-10-14T08:22:16.072Z,15.50
2023-10-14T08:27:14.522Z,15.50
2023-10-14T08:32:13.242Z,16.00
2023-10-14T08:37:14.687Z,16.90
2023-10-14T08:42:13.454Z,17.00
2023-10-14T08:47:15.793Z,17.20
2023-10-14T08:52:18.396Z,17.30
2023-10-14T08:57:17.332Z,17.30
2023-10-14T09:02:15.852Z,17.20
2023-10-14T09:07:18.847Z,17.30
2023-10-14T09:12:17.427Z,17.80
2023-10-14T09:17:17.144Z,18.10
2023-10-14T09:22:27.256Z,17.80
2023-10-14T09:27:27.790Z,17.80
2023-10-14T09:32:26.857Z,18.50
2023-10-14T09:37:27.535Z,19.30
2023-10-14T09:42:26.565Z,20.10
2023-10-14T09:47:27.011Z,21.30
2023-10-14T09:52:27.308Z,22.90
2023-10-14T09:57:27.887Z,23.60
2023-10-14T10:02:26.625Z,22.80
2023-10-14T10:07:43.331Z,22.40
2023-10-14T10:12:43.383Z,22.00
2023-10-14T10:17:42.221Z,22.10
2023-10-14T10:22:44.813Z,23.30
2023-10-14T10:27:44.520Z,21.20
2023-10-14T10:32:48.140Z,21.00
2023-10-14T10:37:52.083Z,21.00
2023-10-14T10:42:55.114Z,23.10
2023-10-14T10:47:55.782Z,22.80
2023-10-14T10:53:19.628Z,22.00
2023-10-14T10:58:18.965Z,21.30
2023-10-14T11:03:18.965Z,19.20
2023-10-14T11:08:18.723Z,17.80
2023-10-14T11:13:18.277Z,17.60
2023-10-14T11:18:31.508Z,17.50
2023-10-14T11:23:40.789Z,17.20
2023-10-14T11:28:39.926Z,17.10
2023-10-14T11:33:38.790Z,16.90
2023-10-14T11:38:45.323Z,17.30
2023-10-14T11:43:47.016Z,18.50
2023-10-14T11:48:47.567Z,19.20
2023-10-14T11:53:51.914Z,19.00
2023-10-14T11:58:52.291Z,18.40
2023-10-14T12:03:50.784Z,17.40
2023-10-14T12:08:53.361Z,17.00
2023-10-14T12:13:52.776Z,17.30
2023-10-14T12:19:00.591Z,17.70
2023-10-14T12:24:03.561Z,18.30
2023-10-14T12:29:08.757Z,18.40
2023-10-14T12:34:10.164Z,17.60
2023-10-14T12:39:11.280Z,17.40
2023-10-14T12:44:14.597Z,17.80
2023-10-14T12:49:13.009Z,18.10
2023-10-14T12:54:17.937Z,18.10
2023-10-14T12:59:16.499Z,17.60
2023-10-14T13:04:18.556Z,17.40
2023-10-14T13:09:18.357Z,17.50
2023-10-14T13:14:27.969Z,17.70
2023-10-14T13:19:27.043Z,17.70
2023-10-14T13:24:27.119Z,17.50
2023-10-14T13:29:27.398Z,17.30
2023-10-14T13:34:25.878Z,16.90
2023-10-14T13:39:25.367Z,16.90
2023-10-14T13:44:25.617Z,16.70
2023-10-14T13:49:26.785Z,16.70
2023-10-14T13:54:25.747Z,16.90
2023-10-14T13:59:25.845Z,17.00
2023-10-14T14:04:24.547Z,17.00
2023-10-14T14:09:25.880Z,16.80
2023-10-14T14:14:26.928Z,16.80
2023-10-14T14:19:25.704Z,16.60
2023-10-14T14:24:27.798Z,16.40
2023-10-14T14:29:28.488Z,16.20
2023-10-14T14:34:32.274Z,16.30
2023-10-14T14:39:31.387Z,16.10
2023-10-14T14:44:33.904Z,16.10
2023-10-14T14:49:32.382Z,16.00
2023-10-14T14:54:31.540Z,16.00
2023-10-14T14:59:31.240Z,16.00
2023-10-14T15:04:29.524Z,16.00
2023-10-14T15:09:28.723Z,15.80
2023-10-14T15:14:26.984Z,15.70
2023-10-14T15:19:27.442Z,15.50
2023-10-14T15:24:25.800Z,15.30
2023-10-14T15:29:24.298Z,15.20
2023-10-14T15:34:28.690Z,15.20
2023-10-14T15:39:34.985Z,15.10
2023-10-14T15:44:33.574Z,15.00
2023-10-14T15:49:38.068Z,15.00
2023-10-14T15:54:38.251Z,15.00
2023-10-14T15:59:36.370Z,15.00
2023-10-14T16:04:35.884Z,15.00
2023-10-14T16:09:34.249Z,14.90
2023-10-14T16:14:34.160Z,14.70
2023-10-14T16:19:32.679Z,14.50
2023-10-14T16:24:31.064Z,14.30
2023-10-14T16:29:30.186Z,14.00
2023-10-14T16:34:30.642Z,13.90
2023-10-14T16:39:29.165Z,13.40
2023-10-14T16:44:27.544Z,13.30
2023-10-14T16:49:27.807Z,13.20
2023-10-14T16:54:28.875Z,13.10
2023-10-14T16:59:27.118Z,13.10
2023-10-14T17:04:25.692Z,13.00
2023-10-14T17:09:25.743Z,12.90
2023-10-14T17:14:30.375Z,12.80
2023-10-14T17:19:29.049Z,12.70
2023-10-14T17:24:28.599Z,12.60
2023-10-14T17:29:28.325Z,12.70
2023-10-14T17:34:26.586Z,12.70
2023-10-14T17:39:25.282Z,12.70
2023-10-14T17:44:23.668Z,12.60
2023-10-14T17:49:23.871Z,12.60
2023-10-14T17:54:22.433Z,12.70
2023-10-14T17:59:20.762Z,12.80
2023-10-14T18:04:19.085Z,12.80
2023-10-14T18:09:18.843Z,12.90
2023-10-14T18:14:17.154Z,12.90
2023-10-14T18:19:15.462Z,12.80
2023-10-14T18:24:13.751Z,12.70
2023-10-14T18:29:14.918Z,12.60
2023-10-14T18:34:14.044Z,12.50
2023-10-14T18:39:12.514Z,12.50
2023-10-14T18:44:12.467Z,12.50
2023-10-14T18:49:10.770Z,12.50
2023-10-14T18:54:09.192Z,12.50
2023-10-14T18:59:07.631Z,12.60
2023-10-14T19:04:07.955Z,12.50
2023-10-14T19:09:07.724Z,12.40
2023-10-14T19:14:19.029Z,12.50
2023-10-14T19:19:19.697Z,12.40
2023-10-14T19:24:18.398Z,12.50
2023-10-14T19:29:16.673Z,12.50
2023-10-14T19:34:18.468Z,12.50
2023-10-14T19:39:16.789Z,12.40
2023-10-14T19:44:15.084Z,12.40
2023-10-14T19:49:13.407Z,12.40
2023-10-14T19:54:13.454Z,12.40
2023-10-14T19:59:12.384Z,12.30
2023-10-14T20:04:11.095Z,12.30
2023-10-14T20:09:11.107Z,12.30
2023-10-14T20:14:13.039Z,12.30
2023-10-14T20:19:13.524Z,12.20
2023-10-14T20:24:12.030Z,12.20
2023-10-14T20:29:11.882Z,12.20
2023-10-14T20:34:13.807Z,12.10
2023-10-14T20:39:11.960Z,12.10
2023-10-14T20:44:15.291Z,12.10
2023-10-14T20:49:15.233Z,12.20
2023-10-14T20:54:13.986Z,12.20
2023-10-14T20:59:14.753Z,12.10
2023-10-14T21:04:15.154Z,12.10
2023-10-14T21:09:14.661Z,12.00
2023-10-14T21:14:15.811Z,11.90
2023-10-14T21:19:14.266Z,11.80
2023-10-14T21:24:13.492Z,11.70
2023-10-14T21:29:16.183Z,11.70
2023-10-14T21:34:15.972Z,11.50
2023-10-14T21:39:14.466Z,11.40
2023-10-14T21:44:14.160Z,11.40
2023-10-14T21:49:12.565Z,11.20
2023-10-14T21:54:11.186Z,11.20
2023-10-14T21:59:09.363Z,11.30
2023-10-14T22:04:09.403Z,11.20
2023-10-14T22:09:09.871Z,11.10
2023-10-14T22:14:08.192Z,11.10
2023-10-14T22:19:08.686Z,11.10
2023-10-14T22:24:08.269Z,11.10
2023-10-14T22:29:07.336Z,11.10
2023-10-14T22:34:07.775Z,11.00
2023-10-14T22:39:14.211Z,11.00
2023-10-14T22:44:16.154Z,11.00
2023-10-14T22:49:14.336Z,11.00
2023-10-14T22:54:14.157Z,10.90
2023-10-14T22:59:12.458Z,10.80
2023-10-14T23:04:13.164Z,10.80
2023-10-14T23:09:15.238Z,10.80
2023-10-14T23:14:16.534Z,10.60
2023-10-14T23:19:14.881Z,10.50
2023-10-14T23:24:13.485Z,10.40
2023-10-14T23:29:11.770Z,10.30
2023-10-14T23:34:12.841Z,10.40
2023-10-14T23:39:18.440Z,10.40
2023-10-14T23:44:16.912Z,10.30
2023-10-14T23:49:17.269Z,10.20
2023-10-14T23:54:15.401Z,10.30
2023-10-14T23:59:13.851Z,10.30
